Time;durP1;ratioP1;P1;durP2;ratioP2;P2;SDS_P1;SDS_P2;PMS_P1;PMS_P2;Temp;Humidity;BMP_temperature;BMP_pressure;BME280_temperature;BME280_humidity;BME280_pressure;Samples;Min_cycle;Max_cycle;Signal;HPM_P1;HPM_P2
2022/09/01 00:01:44;;;;;;;2.63;1.50;;;;;;;15.59;65.19;101775.19;5004775;28;20060;-68
2022/09/01 00:04:14;;;;;;;2.88;1.58;;;;;;;15.50;65.56;101774.88;5006045;28;20446;-68
2022/09/01 00:06:41;;;;;;;4.68;1.90;;;;;;;15.42;66.06;101772.63;5009304;28;20049;-69
2022/09/01 00:09:12;;;;;;;2.97;1.50;;;;;;;15.51;65.76;101782.72;5004207;28;20105;-68
2022/09/01 00:11:41;;;;;;;2.70;1.63;;;;;;;15.38;66.15;101775.50;5003932;28;20060;-68
2022/09/01 00:14:09;;;;;;;2.20;1.30;;;;;;;15.44;66.18;101775.19;5008505;28;20459;-68
2022/09/01 00:16:36;;;;;;;3.50;1.67;;;;;;;15.48;66.01;101774.91;5009543;28;20547;-68
2022/09/01 00:19:04;;;;;;;4.35;1.70;;;;;;;15.26;67.06;101768.28;5007128;28;20046;-68
2022/09/01 00:21:33;;;;;;;5.20;1.80;;;;;;;15.24;66.90;101773.63;5010652;28;20100;-68
2022/09/01 00:24:01;;;;;;;3.35;1.90;;;;;;;15.35;67.38;101779.19;5008367;28;20128;-68
2022/09/01 00:26:27;;;;;;;2.75;1.63;;;;;;;15.51;66.77;101768.66;5007780;28;20673;-68
2022/09/01 00:28:55;;;;;;;2.60;1.77;;;;;;;15.35;67.31;101773.88;5008961;28;20621;-68
2022/09/01 00:31:22;;;;;;;2.08;1.60;;;;;;;15.29;67.99;101763.66;5008608;28;20050;-68
2022/09/01 00:33:50;;;;;;;5.10;1.90;;;;;;;15.25;67.95;101775.34;4987306;28;20078;-68
2022/09/01 00:36:17;;;;;;;3.50;1.70;;;;;;;15.07;68.49;101761.34;5007394;28;20521;-68
2022/09/01 00:38:44;;;;;;;2.72;1.80;;;;;;;15.10;68.66;101776.16;5007714;28;20513;-68
2022/09/01 00:41:11;;;;;;;2.35;1.67;;;;;;;15.14;68.21;101763.66;4991611;28;20116;-68
2022/09/01 00:43:40;;;;;;;4.22;1.80;;;;;;;15.25;67.98;101767.41;5008550;28;20062;-68
2022/09/01 00:46:11;;;;;;;3.05;1.65;;;;;;;15.20;68.17;101765.94;5008638;28;20069;-68
2022/09/01 00:48:39;;;;;;;3.95;1.77;;;;;;;15.04;68.13;101774.69;5006133;28;20467;-68
2022/09/01 00:51:08;;;;;;;2.67;1.80;;;;;;;15.02;68.69;101773.94;5008593;28;20069;-68
2022/09/01 00:53:35;;;;;;;4.43;2.00;;;;;;;15.25;68.08;101770.06;5006680;28;20100;-68
2022/09/01 00:56:02;;;;;;;4.47;1.85;;;;;;;15.25;68.44;101771.84;5007501;28;20498;-68
2022/09/01 00:58:30;;;;;;;3.88;1.70;;;;;;;15.21;69.03;101770.31;5008313;28;20508;-68
2022/09/01 01:00:57;;;;;;;3.45;1.73;;;;;;;15.21;68.94;101772.94;4997899;28;20050;-68
2022/09/01 01:03:25;;;;;;;2.70;1.63;;;;;;;15.38;68.54;101771.06;5008151;28;20042;-68
2022/09/01 01:05:56;;;;;;;5.30;1.73;;;;;;;15.27;69.18;101768.16;5007204;28;20469;-67
2022/09/01 01:08:32;;;;;;;3.47;1.80;;;;;;;15.45;68.95;101767.16;5006380;28;20041;-67
2022/09/01 01:10:59;;;;;;;3.28;1.70;;;;;;;15.45;68.92;101767.16;5006464;28;20285;-68
2022/09/01 01:13:27;;;;;;;3.08;1.70;;;;;;;15.53;69.11;101767.63;5007713;28;20065;-68
2022/09/01 01:15:54;;;;;;;2.90;1.83;;;;;;;15.34;69.86;101768.69;5006431;28;20054;-68
2022/09/01 01:18:20;;;;;;;3.70;1.83;;;;;;;15.46;69.88;101774.16;5007183;28;20042;-68
2022/09/01 01:23:40;;;;;;;3.83;2.15;;;;;;;15.74;68.92;101762.06;4990439;28;20109;-68
2022/09/01 01:26:10;;;;;;;3.13;1.85;;;;;;;15.85;68.70;101768.41;5007182;28;20161;-68
2022/09/01 01:28:38;;;;;;;3.53;1.90;;;;;;;15.84;68.91;101773.81;5007739;28;20413;-68
2022/09/01 01:31:10;;;;;;;4.28;1.98;;;;;;;16.08;68.10;101761.81;5007355;28;20061;-68
2022/09/01 01:33:42;;;;;;;4.00;1.85;;;;;;;16.16;67.94;101764.88;5005747;28;20477;-67
2022/09/01 01:36:12;;;;;;;2.88;1.77;;;;;;;16.26;67.66;101763.38;5002433;28;20458;-67
2022/09/01 01:38:39;;;;;;;3.38;1.83;;;;;;;16.28;67.82;101766.78;5008610;28;20053;-67
2022/09/01 01:41:07;;;;;;;4.13;2.40;;;;;;;16.38;67.19;101769.72;5006598;28;20057;-67
2022/09/01 01:43:34;;;;;;;6.10;2.00;;;;;;;16.32;67.12;101765.69;5007601;28;20050;-67
2022/09/01 01:46:01;;;;;;;2.58;1.90;;;;;;;16.45;66.89;101760.47;5002989;28;20074;-68
2022/09/01 01:48:33;;;;;;;4.68;2.05;;;;;;;16.46;67.29;101764.84;5006122;28;20500;-68
2022/09/01 01:51:01;;;;;;;2.50;1.70;;;;;;;16.32;67.97;101760.38;5007498;28;20069;-68
2022/09/01 01:53:28;;;;;;;2.30;1.50;;;;;;;16.29;68.10;101770.28;5004741;28;20096;-67
2022/09/01 01:55:55;;;;;;;2.40;1.50;;;;;;;16.26;68.31;101770.47;5007583;28;20077;-67
2022/09/01 01:58:24;;;;;;;4.35;1.65;;;;;;;16.29;68.56;101760.56;4995446;28;20082;-67
2022/09/01 02:00:53;;;;;;;2.47;1.50;;;;;;;16.53;67.70;101763.53;5006406;28;20060;-67
2022/09/01 02:03:21;;;;;;;3.65;1.75;;;;;;;16.48;67.88;101761.16;5007602;28;20516;-68
2022/09/01 02:05:49;;;;;;;10.25;2.38;;;;;;;16.64;66.86;101760.25;5005442;28;20520;-67
2022/09/01 02:08:19;;;;;;;4.47;1.77;;;;;;;16.66;67.11;101763.69;5005653;28;20484;-67
2022/09/01 02:10:48;;;;;;;7.40;2.13;;;;;;;16.62;67.04;101759.50;5005687;28;20688;-67
2022/09/01 02:13:17;;;;;;;3.15;1.80;;;;;;;16.60;67.65;101766.69;5007867;28;20406;-67
2022/09/01 02:15:49;;;;;;;3.22;1.67;;;;;;;16.50;67.56;101766.38;5005009;28;20065;-67
2022/09/01 02:18:19;;;;;;;3.80;1.60;;;;;;;16.61;67.59;101766.59;5006246;28;20556;-68
2022/09/01 02:20:48;;;;;;;3.47;1.60;;;;;;;16.69;66.92;101760.84;5005080;28;20096;-68
2022/09/01 02:23:18;;;;;;;4.75;1.73;;;;;;;16.70;66.83;101762.56;5007015;28;20050;-68
2022/09/01 02:25:46;;;;;;;4.68;1.70;;;;;;;16.89;66.24;101766.59;5006464;28;20052;-68
2022/09/01 02:28:15;;;;;;;2.67;1.75;;;;;;;16.75;66.66;101758.66;5005243;28;20100;-69
2022/09/01 02:30:44;;;;;;;3.63;1.70;;;;;;;16.54;67.82;101763.44;5006366;28;20053;-68
2022/09/01 02:33:17;;;;;;;2.22;1.50;;;;;;;16.63;67.59;101762.06;5005764;28;20623;-68
2022/09/01 02:35:44;;;;;;;4.28;1.60;;;;;;;16.77;67.31;101759.44;4988876;28;20698;-68
2022/09/01 02:38:12;;;;;;;6.55;1.92;;;;;;;16.89;66.59;101760.44;4987057;28;20050;-68
2022/09/01 02:40:43;;;;;;;3.67;1.50;;;;;;;16.70;67.33;101760.75;4985840;28;20050;-68
2022/09/01 02:43:10;;;;;;;4.60;1.70;;;;;;;16.82;66.62;101760.00;5003329;28;20563;-68
2022/09/01 02:45:37;;;;;;;2.28;1.50;;;;;;;16.90;66.47;101755.06;5006167;28;20120;-68
2022/09/01 02:48:06;;;;;;;7.60;1.90;;;;;;;16.79;67.09;101757.53;4996699;28;20049;-68
2022/09/01 02:50:34;;;;;;;4.25;2.10;;;;;;;17.10;65.58;101759.16;4995962;28;20046;-68
2022/09/01 02:53:00;;;;;;;2.53;1.67;;;;;;;16.91;66.74;101753.28;5002494;28;20069;-68
2022/09/01 02:55:27;;;;;;;5.43;1.60;;;;;;;16.85;66.87;101753.66;5000667;28;20042;-68
2022/09/01 02:57:55;;;;;;;2.22;1.60;;;;;;;17.03;66.27;101755.19;5002287;28;20042;-68
2022/09/01 03:00:27;;;;;;;5.82;2.08;;;;;;;16.94;66.31;101745.13;5001430;28;20125;-68
2022/09/01 03:02:55;;;;;;;5.63;2.17;;;;;;;17.02;66.12;101759.63;5003808;28;20489;-68
2022/09/01 03:05:25;;;;;;;4.53;1.55;;;;;;;17.17;65.34;101755.16;5005484;28;20115;-68
2022/09/01 03:07:55;;;;;;;3.22;1.52;;;;;;;17.17;65.34;101755.16;5006675;28;20042;-68
2022/09/01 03:10:25;;;;;;;3.97;1.30;;;;;;;17.11;65.19;101750.22;5003888;28;20042;-68
2022/09/01 03:12:53;;;;;;;2.50;1.30;;;;;;;17.11;65.41;101755.53;5006199;28;20108;-68
2022/09/01 03:15:20;;;;;;;4.70;1.58;;;;;;;17.16;65.11;101753.44;5006405;28;20655;-68
2022/09/01 03:17:47;;;;;;;3.58;1.40;;;;;;;17.17;64.87;101746.34;5006307;28;20058;-68
2022/09/01 03:20:14;;;;;;;3.42;1.55;;;;;;;17.28;64.02;101751.81;5003268;28;20049;-68
2022/09/01 03:22:40;;;;;;;3.30;1.42;;;;;;;17.04;65.03;101746.25;5007208;28;20065;-68
2022/09/01 03:25:08;;;;;;;2.55;1.50;;;;;;;17.04;65.02;101746.25;5005251;28;20140;-68
2022/09/01 03:27:35;;;;;;;3.55;1.77;;;;;;;17.04;64.93;101741.81;5004269;28;20049;-68
2022/09/01 03:30:01;;;;;;;3.85;1.50;;;;;;;17.03;65.20;101741.94;5006354;28;20078;-68
2022/09/01 03:32:28;;;;;;;5.07;1.60;;;;;;;17.26;64.51;101738.66;5001576;28;20038;-68
2022/09/01 03:34:55;;;;;;;2.80;1.10;;;;;;;17.38;63.78;101751.13;5005531;28;20077;-68
2022/09/01 03:37:22;;;;;;;1.77;1.15;;;;;;;17.11;64.08;101739.63;5006140;28;20441;-68
2022/09/01 03:39:48;;;;;;;2.42;1.20;;;;;;;17.12;63.94;101741.34;5002816;28;20049;-68
2022/09/01 03:42:20;;;;;;;4.43;1.60;;;;;;;17.20;63.82;101741.69;5005030;28;20041;-68
2022/09/01 03:44:48;;;;;;;2.33;1.30;;;;;;;17.32;63.16;101745.38;5001802;28;20513;-68
2022/09/01 03:47:15;;;;;;;1.88;1.20;;;;;;;17.47;62.92;101749.69;4988619;28;20085;-68
2022/09/01 03:49:42;;;;;;;3.35;1.67;;;;;;;17.73;62.33;101743.59;5002068;28;20720;-68
2022/09/01 03:52:10;;;;;;;2.25;1.20;;;;;;;17.77;61.85;101745.09;5005605;28;20493;-68
2022/09/01 03:54:37;;;;;;;4.50;1.38;;;;;;;17.78;61.92;101744.13;5012383;28;20413;-68
2022/09/01 03:57:08;;;;;;;3.60;1.20;;;;;;;17.72;61.88;101746.34;5010495;28;20062;-68
2022/09/01 03:59:42;;;;;;;3.08;1.00;;;;;;;17.90;61.46;101748.63;5010447;28;20053;-68
2022/09/01 04:02:08;;;;;;;4.13;1.67;;;;;;;17.88;62.07;101747.03;5011199;28;20069;-68
2022/09/01 04:04:35;;;;;;;4.03;1.40;;;;;;;17.93;61.59;101744.91;5012295;28;20069;-68
2022/09/01 04:07:01;;;;;;;3.83;1.20;;;;;;;17.72;62.75;101744.53;5010338;28;20046;-68
2022/09/01 04:09:28;;;;;;;1.83;1.10;;;;;;;17.76;62.50;101746.03;5009435;28;20049;-68
2022/09/01 04:11:54;;;;;;;3.58;1.63;;;;;;;17.51;62.98;101741.44;5011592;28;20041;-68
2022/09/01 04:14:21;;;;;;;3.08;1.20;;;;;;;17.26;64.45;101736.00;5011066;28;20556;-68
2022/09/01 04:19:35;;;;;;;2.20;1.50;;;;;;;17.53;63.13;101746.63;5000945;28;20516;-68
2022/09/01 04:22:03;;;;;;;3.45;1.58;;;;;;;17.46;63.76;101750.66;5001763;28;20046;-68
2022/09/01 04:24:32;;;;;;;1.83;1.23;;;;;;;17.61;62.81;101749.69;4986697;28;20046;-69
2022/09/01 04:27:01;;;;;;;3.40;1.75;;;;;;;17.46;63.21;101743.53;5001385;28;20552;-68
2022/09/01 04:29:29;;;;;;;5.45;1.67;;;;;;;17.48;63.12;101741.63;5012124;28;20046;-68
2022/09/01 04:32:00;;;;;;;3.72;1.40;;;;;;;17.44;63.54;101742.78;5011570;28;20046;-68
2022/09/01 04:34:35;;;;;;;4.40;1.63;;;;;;;17.52;62.96;101740.47;5011496;28;20046;-68
2022/09/01 04:37:04;;;;;;;3.03;1.50;;;;;;;17.35;63.82;101747.81;5011779;28;20054;-68
2022/09/01 04:39:31;;;;;;;3.90;1.60;;;;;;;17.15;64.30;101746.44;5008950;28;20049;-68
2022/09/01 04:41:57;;;;;;;4.07;1.40;;;;;;;17.44;63.58;101747.25;5010658;28;20065;-68
2022/09/01 04:44:24;;;;;;;4.40;1.80;;;;;;;17.49;63.13;101746.00;5012002;28;20092;-68
2022/09/01 04:46:50;;;;;;;3.22;1.48;;;;;;;17.46;63.11;101754.16;5003958;28;20054;-67
2022/09/01 04:49:23;;;;;;;2.65;1.45;;;;;;;17.31;63.29;101751.63;4992645;28;20074;-68
2022/09/01 04:51:50;;;;;;;;;;;;;;;17.62;62.58;101758.50;4981442;28;20051;-68
2022/09/01 04:54:16;;;;;;;3.17;1.48;;;;;;;17.41;63.49;101764.19;4972199;28;19961;-68
2022/09/01 04:56:45;;;;;;;2.80;1.33;;;;;;;17.40;63.58;101751.91;4972473;28;20488;-68
2022/09/01 04:59:13;;;;;;;1.92;1.17;;;;;;;17.44;62.98;101757.84;4970184;28;20066;-68
2022/09/01 05:01:43;;;;;;;2.88;1.42;;;;;;;17.61;62.64;101760.28;4976573;28;20522;-68
2022/09/01 05:04:11;;;;;;;4.60;1.60;;;;;;;17.73;62.03;101761.31;5000637;28;20471;-68
2022/09/01 05:06:41;;;;;;;5.13;1.38;;;;;;;17.68;62.36;101758.09;5008300;28;20115;-68
2022/09/01 05:09:09;;;;;;;3.33;1.40;;;;;;;17.62;61.98;101754.06;5008802;28;20408;-68
2022/09/01 05:11:37;;;;;;;5.97;1.50;;;;;;;17.82;61.26;101760.69;5007943;28;20434;-68
2022/09/01 05:14:05;;;;;;;5.75;1.45;;;;;;;17.86;61.14;101763.03;5006711;28;20041;-68
2022/09/01 05:16:33;;;;;;;3.78;1.40;;;;;;;17.99;60.91;101760.44;5007903;28;20050;-68
2022/09/01 05:19:00;;;;;;;9.88;1.60;;;;;;;18.10;60.59;101760.56;5006473;28;20046;-68
2022/09/01 05:21:28;;;;;;;4.53;1.70;;;;;;;18.04;60.54;101757.47;5003989;28;20049;-68
2022/09/01 05:23:59;;;;;;;5.15;1.63;;;;;;;18.18;59.96;101757.41;5007790;28;20089;-68
2022/09/01 05:26:28;;;;;;;3.20;1.40;;;;;;;18.26;59.81;101766.53;5007941;28;20046;-68
2022/09/01 05:28:58;;;;;;;4.85;1.50;;;;;;;18.22;60.01;101762.38;5006737;28;20125;-68
2022/09/01 05:31:33;;;;;;;4.63;1.27;;;;;;;18.15;60.42;101762.91;5006697;28;20104;-68
2022/09/01 05:34:01;;;;;;;1.65;1.10;;;;;;;18.21;60.09;101759.84;5000405;28;20141;-68
2022/09/01 05:36:32;;;;;;;5.20;1.48;;;;;;;18.37;58.68;101769.31;5007803;28;20042;-68
2022/09/01 05:39:00;;;;;;;3.03;1.27;;;;;;;18.63;58.18;101764.06;5006352;28;20346;-68
2022/09/01 05:41:27;;;;;;;1.75;1.10;;;;;;;18.75;57.37;101757.91;5005840;28;20520;-68
2022/09/01 05:43:53;;;;;;;7.70;1.55;;;;;;;18.57;57.41;101772.47;5008706;28;20115;-68
2022/09/01 05:46:22;;;;;;;5.25;1.40;;;;;;;18.67;57.19;101765.53;5008006;28;22157;-68
2022/09/01 05:48:50;;;;;;;5.78;1.10;;;;;;;18.94;57.04;101771.59;4997151;28;20489;-68
2022/09/01 05:51:21;;;;;;;3.83;0.90;;;;;;;19.06;56.29;101772.56;4996782;28;20418;-68
2022/09/01 05:53:50;;;;;;;3.42;0.90;;;;;;;19.52;55.26;101773.63;4999643;28;20053;-68
2022/09/01 05:56:18;;;;;;;2.35;1.30;;;;;;;19.87;54.46;101782.56;5006045;28;20409;-69
2022/09/01 05:58:47;;;;;;;4.43;1.30;;;;;;;20.05;53.60;101775.00;5003539;28;20045;-69
2022/09/01 06:01:20;;;;;;;6.45;1.00;;;;;;;20.36;53.20;101777.06;4992962;28;20050;-69
2022/09/01 06:03:48;;;;;;;4.75;0.90;;;;;;;20.73;51.55;101774.25;4993825;28;20077;-69
2022/09/01 06:06:15;;;;;;;4.82;0.90;;;;;;;20.33;52.50;101776.44;4993807;28;20069;-69
2022/09/01 06:08:42;;;;;;;3.10;0.93;;;;;;;20.45;52.76;101778.19;4991556;28;20516;-68
2022/09/01 06:11:12;;;;;;;2.05;0.90;;;;;;;20.84;52.25;101772.41;5006359;28;20576;-68
2022/09/01 06:13:40;;;;;;;1.60;0.93;;;;;;;20.93;51.54;101775.34;5007006;28;20413;-68
2022/09/01 06:16:07;;;;;;;2.42;1.00;;;;;;;20.86;51.46;101785.63;5004372;28;20042;-69
2022/09/01 06:18:34;;;;;;;3.15;1.10;;;;;;;21.20;50.50;101782.03;5007280;28;20081;-69
2022/09/01 06:21:03;;;;;;;6.30;1.10;;;;;;;21.53;50.15;101774.97;5006294;28;20110;-69
2022/09/01 06:23:30;;;;;;;2.78;0.95;;;;;;;21.86;48.63;101782.88;5000657;28;20045;-69
2022/09/01 06:25:58;;;;;;;3.15;1.15;;;;;;;22.23;46.97;101780.69;5006077;28;20053;-69
2022/09/01 06:28:25;;;;;;;2.15;0.80;;;;;;;22.42;46.21;101774.63;4999420;28;20048;-69
2022/09/01 06:30:53;;;;;;;2.35;0.93;;;;;;;22.86;45.55;101779.72;5000566;28;20056;-69
2022/09/01 06:33:23;;;;;;;1.90;0.75;;;;;;;23.04;45.57;101786.13;5006500;28;20050;-69
2022/09/01 06:35:51;;;;;;;5.38;1.00;;;;;;;23.70;43.10;101787.34;4987150;28;20078;-69
2022/09/01 06:38:18;;;;;;;1.92;0.73;;;;;;;22.83;43.71;101789.84;5001276;28;20498;-69
2022/09/01 06:40:45;;;;;;;2.25;0.90;;;;;;;23.31;42.83;101790.88;5004972;28;20120;-69
2022/09/01 06:43:14;;;;;;;5.07;1.02;;;;;;;23.03;43.30;101787.09;5006117;28;20045;-69
2022/09/01 06:45:43;;;;;;;1.83;0.80;;;;;;;23.63;41.94;101793.38;5005913;28;20184;-69
2022/09/01 06:48:14;;;;;;;2.40;0.73;;;;;;;23.39;42.15;101800.91;5005695;28;20556;-69
2022/09/01 06:50:41;;;;;;;4.27;0.97;;;;;;;24.15;41.88;101801.09;5004206;28;20493;-68
2022/09/01 06:53:09;;;;;;;5.28;0.93;;;;;;;24.69;39.48;101808.47;5007011;28;20107;-69
2022/09/01 06:55:36;;;;;;;2.83;0.85;;;;;;;23.88;40.63;101805.41;5006228;28;20445;-69
2022/09/01 06:58:04;;;;;;;2.20;1.10;;;;;;;24.12;41.14;101804.03;5004013;28;20054;-68
2022/09/01 07:00:30;;;;;;;3.70;1.17;;;;;;;23.96;41.00;101803.72;5007576;28;20221;-69
2022/09/01 07:02:58;;;;;;;1.40;0.80;;;;;;;23.46;40.80;101804.78;5005151;28;20046;-69
2022/09/01 07:05:26;;;;;;;5.38;0.90;;;;;;;24.07;41.22;101806.25;5004065;28;20050;-69
2022/09/01 07:07:54;;;;;;;2.72;1.00;;;;;;;24.99;38.86;101806.59;5006593;28;20081;-68
2022/09/01 07:10:22;;;;;;;1.55;0.88;;;;;;;25.11;39.17;101795.53;5005803;28;20065;-69
2022/09/01 07:12:48;;;;;;;3.42;0.93;;;;;;;24.79;37.68;101803.13;5003450;28;20050;-69
2022/09/01 07:15:16;;;;;;;4.57;1.00;;;;;;;24.31;39.32;101807.72;5005718;28;20045;-68
2022/09/01 07:17:43;;;;;;;2.70;1.20;;;;;;;24.61;38.04;101810.22;5004871;28;20041;-68
2022/09/01 07:20:11;;;;;;;1.98;0.70;;;;;;;25.02;36.43;101803.59;5003308;28;20133;-68
2022/09/01 07:22:39;;;;;;;1.55;0.90;;;;;;;24.98;36.52;101800.38;5004955;28;20052;-68
2022/09/01 07:25:11;;;;;;;4.70;0.85;;;;;;;25.17;36.26;101808.34;5006629;28;20074;-68
2022/09/01 07:27:38;;;;;;;3.80;0.90;;;;;;;25.48;34.85;101806.25;5003731;28;20046;-68
2022/09/01 07:30:07;;;;;;;3.40;0.98;;;;;;;25.61;36.16;101805.88;5004790;28;20120;-68
2022/09/01 07:32:34;;;;;;;1.20;0.68;;;;;;;26.43;34.23;101805.69;5004691;28;20069;-68
2022/09/01 07:35:01;;;;;;;3.60;1.00;;;;;;;25.95;36.03;101801.56;5007269;28;20041;-68
2022/09/01 07:37:27;;;;;;;5.10;0.85;;;;;;;26.63;33.85;101793.75;5023730;28;20488;-68
2022/09/01 07:39:55;;;;;;;7.90;1.00;;;;;;;25.88;33.24;101796.94;5023607;28;20528;-68
2022/09/01 07:42:22;;;;;;;2.65;0.90;;;;;;;25.12;34.41;101794.56;5005209;28;20069;-68
2022/09/01 07:44:49;;;;;;;3.38;1.00;;;;;;;25.55;35.56;101791.25;5004254;28;20050;-68
2022/09/01 07:47:16;;;;;;;4.18;0.90;;;;;;;26.15;34.57;101796.88;5021941;28;20456;-68
2022/09/01 07:49:43;;;;;;;3.38;0.93;;;;;;;25.67;34.17;101794.56;5002866;28;20049;-68
2022/09/01 07:52:09;;;;;;;4.38;0.80;;;;;;;26.51;33.87;101795.88;5022063;28;20045;-68
2022/09/01 07:54:39;;;;;;;6.20;0.90;;;;;;;26.69;32.25;101792.28;5008365;28;20042;-68
2022/09/01 07:57:06;;;;;;;3.08;0.82;;;;;;;26.54;32.89;101789.31;5010332;28;20052;-68
2022/09/01 07:59:34;;;;;;;1.83;0.90;;;;;;;26.29;32.80;101803.56;5024545;28;20537;-68
2022/09/01 08:02:04;;;;;;;3.63;0.70;;;;;;;26.97;31.71;101794.69;5008174;28;20054;-68
2022/09/01 08:04:31;;;;;;;1.52;0.70;;;;;;;26.86;32.36;101794.97;4994167;28;20418;-68
2022/09/01 08:06:57;;;;;;;2.20;0.77;;;;;;;26.72;34.37;101803.56;5004157;28;20057;-68
2022/09/01 08:09:23;;;;;;;1.33;0.65;;;;;;;27.36;32.52;101808.47;5015495;28;20041;-67
2022/09/01 08:11:51;;;;;;;10.68;0.98;;;;;;;27.26;31.20;101806.94;5006657;28;20069;-67
2022/09/01 08:14:18;;;;;;;3.92;1.10;;;;;;;27.13;32.06;101804.66;5003133;28;20473;-67
2022/09/01 08:16:45;;;;;;;5.22;1.10;;;;;;;27.21;32.01;101809.25;5005084;28;20045;-67
2022/09/01 08:19:11;;;;;;;4.13;0.82;;;;;;;26.79;31.93;101804.59;5020501;28;20123;-67
2022/09/01 08:21:38;;;;;;;2.92;1.10;;;;;;;27.18;32.40;101804.19;5023780;28;20079;-67
2022/09/01 08:24:05;;;;;;;3.13;0.90;;;;;;;27.73;33.63;101804.59;5017844;28;20042;-67
2022/09/01 08:26:31;;;;;;;3.28;0.98;;;;;;;28.08;31.49;101808.91;5005101;28;20580;-67
2022/09/01 08:28:57;;;;;;;2.22;0.60;;;;;;;28.48;30.60;101806.19;5022626;28;20049;-67
2022/09/01 08:31:26;;;;;;;2.53;0.70;;;;;;;28.26;28.75;101813.13;5013849;28;20458;-68
2022/09/01 08:33:54;;;;;;;1.48;0.70;;;;;;;28.48;30.24;101804.34;5013518;28;20117;-67
2022/09/01 08:36:20;;;;;;;3.22;0.82;;;;;;;28.51;30.81;101805.84;5020439;28;20140;-67
2022/09/01 08:38:46;;;;;;;3.42;0.80;;;;;;;28.01;30.48;101804.13;5026304;28;20147;-67
2022/09/01 08:41:18;;;;;;;5.30;0.70;;;;;;;28.20;31.05;101797.59;5022183;28;20084;-67
2022/09/01 08:43:57;;;;;;;3.45;1.00;;;;;;;27.96;31.62;101797.56;5016171;28;20065;-67
2022/09/01 08:46:28;;;;;;;4.53;1.38;;;;;;;28.55;30.38;101799.09;5005110;28;20042;-67
2022/09/01 08:48:57;;;;;;;7.10;1.30;;;;;;;29.15;29.53;101795.94;5014005;28;20133;-67
2022/09/01 08:51:31;;;;;;;4.20;0.85;;;;;;;29.25;27.05;101793.88;5008119;28;20041;-68
2022/09/01 08:54:04;;;;;;;2.03;0.68;;;;;;;28.96;27.59;101792.63;5007996;28;20045;-68
2022/09/01 08:56:34;;;;;;;8.18;0.90;;;;;;;29.23;28.78;101793.22;5009102;28;20065;-68
2022/09/01 08:59:01;;;;;;;5.78;1.00;;;;;;;28.78;29.31;101801.97;5018359;28;20048;-68
2022/09/01 09:01:37;;;;;;;4.20;1.05;;;;;;;29.31;27.74;101790.50;5021312;28;20524;-67
2022/09/01 09:04:15;;;;;;;3.15;0.60;;;;;;;29.87;27.14;101792.91;5004283;28;20124;-67
2022/09/01 09:06:53;;;;;;;3.53;0.75;;;;;;;29.36;26.67;101788.13;5007896;28;20046;-67
2022/09/01 09:09:20;;;;;;;2.67;0.80;;;;;;;29.56;28.19;101794.78;4993560;28;20104;-67
2022/09/01 09:12:04;;;;;;;1.02;0.60;;;;;;;30.10;25.91;101789.38;4993841;28;20128;-67
2022/09/01 09:14:49;;;;;;;2.97;0.88;;;;;;;29.50;26.02;101798.16;5006893;28;20100;-67
2022/09/01 09:17:22;;;;;;;1.38;0.52;;;;;;;29.86;26.65;101793.91;5007977;28;20096;-67
2022/09/01 09:19:49;;;;;;;1.55;0.70;;;;;;;29.83;26.80;101793.41;5005592;28;20490;-68
2022/09/01 09:22:18;;;;;;;3.70;1.00;;;;;;;30.09;28.25;101793.09;5007686;28;20564;-69
2022/09/01 09:24:49;;;;;;;1.67;0.80;;;;;;;30.74;25.84;101787.97;5007630;28;20037;-70
2022/09/01 09:27:18;;;;;;;1.50;0.60;;;;;;;31.02;27.09;101788.16;5009881;28;20078;-70
2022/09/01 09:29:46;;;;;;;1.33;0.65;;;;;;;30.95;25.30;101781.78;5006099;28;20516;-70
2022/09/01 09:32:12;;;;;;;1.25;0.60;;;;;;;30.46;25.57;101795.84;5002022;28;20413;-69
2022/09/01 09:34:41;;;;;;;1.40;0.70;;;;;;;30.59;26.58;101787.09;5005222;28;20046;-69
2022/09/01 09:37:24;;;;;;;3.47;0.85;;;;;;;30.34;25.08;101797.28;5008120;28;20100;-70
2022/09/01 09:40:13;;;;;;;0.55;0.50;;;;;;;30.04;24.79;101779.28;5004592;28;20046;-70
2022/09/01 09:42:42;;;;;;;3.53;0.73;;;;;;;30.50;25.80;101777.38;5003647;28;20050;-70
2022/09/01 09:45:22;;;;;;;2.08;0.98;;;;;;;30.56;25.56;101768.53;5007106;28;20450;-70
2022/09/01 09:47:49;;;;;;;0.80;0.60;;;;;;;30.25;25.05;101776.72;4987905;28;20047;-70
2022/09/01 09:50:23;;;;;;;3.85;1.10;;;;;;;30.59;23.16;101774.41;5003088;28;20046;-70
2022/09/01 09:52:52;;;;;;;1.05;0.60;;;;;;;30.54;24.78;101762.44;5003020;28;20068;-70
2022/09/01 09:55:24;;;;;;;4.40;1.10;;;;;;;30.41;25.63;101763.88;5027597;28;20053;-70
2022/09/01 09:57:53;;;;;;;1.42;0.68;;;;;;;30.57;23.56;101768.31;5027060;28;20397;-70
2022/09/01 10:00:22;;;;;;;2.10;0.77;;;;;;;30.82;22.19;101775.16;5026768;28;20090;-70
2022/09/01 10:02:54;;;;;;;2.25;0.60;;;;;;;30.36;22.27;101773.59;5006656;28;20050;-70
2022/09/01 10:05:36;;;;;;;1.08;0.63;;;;;;;30.24;24.54;101767.75;5005801;28;20096;-70
2022/09/01 10:08:05;;;;;;;1.58;0.93;;;;;;;30.40;24.10;101769.50;5016707;28;20065;-70
2022/09/01 10:10:39;;;;;;;0.98;0.50;;;;;;;30.61;23.42;101766.94;5025274;28;20068;-70
2022/09/01 10:13:11;;;;;;;2.10;0.73;;;;;;;29.39;24.94;101761.59;5010886;28;20100;-70
2022/09/01 10:15:38;;;;;;;;;;;;;;;29.31;23.93;101760.78;5005671;28;20049;-70
2022/09/01 10:18:09;;;;;;;3.13;0.70;;;;;;;29.25;25.01;101754.19;5006480;28;20403;-70
2022/09/01 10:20:39;;;;;;;1.77;0.98;;;;;;;29.72;25.21;101753.28;5016804;28;20107;-70
2022/09/01 10:23:05;;;;;;;3.38;0.80;;;;;;;30.57;25.04;101745.81;5027521;28;20456;-70
2022/09/01 10:25:34;;;;;;;4.50;1.10;;;;;;;30.76;22.43;101750.69;5025835;28;20041;-70
2022/09/01 10:28:09;;;;;;;2.45;0.73;;;;;;;30.40;24.62;101743.28;5024915;28;20069;-70
2022/09/01 10:30:41;;;;;;;2.35;0.90;;;;;;;30.35;23.80;101734.84;5024747;28;20128;-70
2022/09/01 10:33:08;;;;;;;1.48;0.82;;;;;;;31.06;24.21;101740.72;5006149;28;20129;-70
2022/09/01 10:35:41;;;;;;;2.83;0.70;;;;;;;30.07;22.80;101732.94;4986777;28;20070;-69
2022/09/01 10:38:10;;;;;;;2.63;0.90;;;;;;;30.36;23.18;101750.06;4985820;28;20495;-69
2022/09/01 10:40:40;;;;;;;1.20;0.70;;;;;;;30.54;23.36;101741.63;4984934;28;20081;-69
2022/09/01 10:43:29;;;;;;;2.75;0.63;;;;;;;30.07;25.00;101747.28;5003586;28;20127;-69
2022/09/01 10:45:55;;;;;;;5.05;0.88;;;;;;;30.70;23.85;101748.75;4986547;28;20494;-69
2022/09/01 10:48:26;;;;;;;7.88;0.90;;;;;;;30.67;22.33;101744.50;5015106;28;20049;-69
2022/09/01 10:51:14;;;;;;;3.85;0.63;;;;;;;29.99;24.29;101738.41;5024728;28;20064;-69
2022/09/01 10:53:42;;;;;;;2.60;0.70;;;;;;;29.97;25.27;101740.47;5026576;28;20519;-69
2022/09/01 10:56:13;;;;;;;1.80;0.77;;;;;;;29.43;24.93;101745.84;5026247;28;20103;-69
2022/09/01 10:58:50;;;;;;;2.72;0.63;;;;;;;29.87;24.02;101741.53;5025106;28;20132;-69
2022/09/01 11:01:16;;;;;;;1.75;0.90;;;;;;;29.77;23.99;101740.06;5017747;28;20046;-69
2022/09/01 11:03:52;;;;;;;1.95;0.70;;;;;;;28.55;25.31;101728.94;5003920;28;20053;-69
2022/09/01 11:07:00;;;;;;;1.45;0.70;;;;;;;29.29;25.02;101728.56;5004453;28;20076;-69
2022/09/01 11:09:31;;;;;;;4.07;0.70;;;;;;;30.09;24.06;101729.00;4943873;29;20055;-69
2022/09/01 11:12:32;;;;;;;1.45;0.63;;;;;;;29.61;24.40;101741.00;4997350;28;20046;-69
2022/09/01 11:15:00;;;;;;;2.25;0.77;;;;;;;30.19;23.81;101726.06;4995807;28;20057;-69
2022/09/01 11:17:30;;;;;;;1.95;0.70;;;;;;;29.95;23.30;101727.09;5004691;28;20482;-69
2022/09/01 11:20:04;;;;;;;4.13;1.10;;;;;;;30.00;24.52;101729.28;5005587;28;20700;-69
2022/09/01 11:22:36;;;;;;;2.22;1.02;;;;;;;29.61;24.32;101730.19;5006506;28;20121;-68
2022/09/01 11:25:30;;;;;;;2.22;0.80;;;;;;;30.00;23.54;101729.28;5005812;28;20414;-68
2022/09/01 11:28:03;;;;;;;2.22;0.70;;;;;;;30.58;23.82;101724.00;5006532;28;20143;-68
2022/09/01 11:30:37;;;;;;;3.53;0.80;;;;;;;31.11;23.20;101730.16;5023923;28;20041;-69
2022/09/01 11:33:16;;;;;;;3.17;1.02;;;;;;;31.31;23.02;101731.22;4999600;28;20065;-69
2022/09/01 11:35:44;;;;;;;3.13;0.80;;;;;;;31.21;22.55;101727.97;5003931;28;20042;-69
2022/09/01 11:38:15;;;;;;;2.92;0.63;;;;;;;30.32;23.07;101720.84;5007075;28;20091;-68
2022/09/01 11:40:42;;;;;;;4.47;0.90;;;;;;;30.30;25.08;101721.03;5003350;28;20114;-68
2022/09/01 11:43:14;;;;;;;1.95;0.82;;;;;;;30.57;23.57;101726.88;5012398;28;20048;-68